createdAt,value
2019-03-29T00:00:04.441Z,89.31
2019-03-29T00:01:04.444Z,88.90
2019-03-29T00:02:04.383Z,89.51
2019-03-29T00:03:04.379Z,89.92
2019-03-29T00:04:04.420Z,89.11
2019-03-29T00:05:04.362Z,89.72
2019-03-29T00:06:04.348Z,89.83
2019-03-29T00:07:04.340Z,89.72
2019-03-29T00:08:04.319Z,89.51
2019-03-29T00:09:04.305Z,89.83
2019-03-29T00:10:04.346Z,89.58
2019-03-29T00:11:04.284Z,89.51
2019-03-29T00:12:05.001Z,89.83
2019-03-29T00:13:04.260Z,88.90
2019-03-29T00:14:04.244Z,89.51
2019-03-29T00:15:04.291Z,89.83
2019-03-29T00:16:04.233Z,89.68
2019-03-29T00:17:04.212Z,89.27
2019-03-29T00:18:04.206Z,89.68
2019-03-29T00:19:04.200Z,88.90
2019-03-29T00:20:06.183Z,89.68
2019-03-29T00:21:04.261Z,89.31
2019-03-29T00:22:04.950Z,89.72
2019-03-29T00:23:04.244Z,89.78
2019-03-29T00:24:07.095Z,90.03
2019-03-29T00:25:04.128Z,89.06
2019-03-29T00:26:04.110Z,89.06
2019-03-29T00:27:04.107Z,89.72
2019-03-29T00:28:04.093Z,89.68
2019-03-29T00:29:04.130Z,89.00
2019-03-29T00:30:04.069Z,89.51
2019-03-29T00:31:04.064Z,89.51
2019-03-29T00:32:04.048Z,89.92
2019-03-29T00:33:04.044Z,89.92
2019-03-29T00:34:04.056Z,90.75
2019-03-29T00:35:04.022Z,90.44
2019-03-29T00:36:04.033Z,89.51
2019-03-29T00:37:04.037Z,89.51
2019-03-29T00:38:03.984Z,89.72
2019-03-29T00:39:03.967Z,89.89
2019-03-29T00:40:04.012Z,89.68
2019-03-29T00:41:03.947Z,89.78
2019-03-29T00:42:03.944Z,89.47
2019-03-29T00:43:03.934Z,89.37
2019-03-29T00:44:03.938Z,89.68
2019-03-29T00:45:03.901Z,89.58
2019-03-29T00:46:03.929Z,89.78
2019-03-29T00:47:04.068Z,89.51
2019-03-29T00:48:03.876Z,89.42
2019-03-29T00:49:03.868Z,89.72
2019-03-29T00:50:03.845Z,89.72
2019-03-29T00:51:03.837Z,89.92
2019-03-29T00:52:03.864Z,90.03
2019-03-29T00:53:03.857Z,90.44
2019-03-29T00:54:03.824Z,89.76
2019-03-29T00:55:03.799Z,91.20
2019-03-29T00:56:03.791Z,90.84
2019-03-29T00:57:04.874Z,90.84
2019-03-29T00:58:03.766Z,89.83
2019-03-29T00:59:03.753Z,89.92
2019-03-29T01:00:03.755Z,89.87
2019-03-29T01:01:03.735Z,89.72
2019-03-29T01:02:03.769Z,89.62
2019-03-29T01:03:03.708Z,89.51
2019-03-29T01:04:03.696Z,89.92
2019-03-29T01:05:03.684Z,90.79
2019-03-29T01:06:03.676Z,91.09
2019-03-29T01:07:04.828Z,90.69
2019-03-29T01:08:08.236Z,90.69
2019-03-29T01:09:04.987Z,90.58
2019-03-29T01:10:03.638Z,90.28
2019-03-29T01:11:03.619Z,90.58
2019-03-29T01:12:03.604Z,90.48
2019-03-29T01:13:03.633Z,90.79
2019-03-29T01:14:03.589Z,90.48
2019-03-29T01:15:03.578Z,90.48
2019-03-29T01:16:03.601Z,90.79
2019-03-29T01:17:03.574Z,90.37
2019-03-29T01:18:03.545Z,90.28
2019-03-29T01:19:04.023Z,90.48
2019-03-29T01:20:03.527Z,90.37
2019-03-29T01:21:03.538Z,90.89
2019-03-29T01:22:03.501Z,90.79
2019-03-29T01:23:03.483Z,91.40
2019-03-29T01:24:03.511Z,91.30
2019-03-29T01:25:03.471Z,91.40
2019-03-29T01:26:03.458Z,91.30
2019-03-29T01:27:03.445Z,90.58
2019-03-29T01:28:03.438Z,90.17
2019-03-29T01:29:04.564Z,90.44
2019-03-29T01:30:03.409Z,90.69
2019-03-29T01:31:03.401Z,90.69
2019-03-29T01:32:03.393Z,90.89
2019-03-29T01:33:03.393Z,90.75
2019-03-29T01:34:03.424Z,90.54
2019-03-29T01:35:03.396Z,90.54
2019-03-29T01:36:03.344Z,90.64
2019-03-29T01:37:03.327Z,89.31
2019-03-29T01:38:03.323Z,89.15
2019-03-29T01:39:03.303Z,89.42
2019-03-29T01:40:03.340Z,89.87
2019-03-29T01:41:03.290Z,89.97
2019-03-29T01:42:03.275Z,90.03
2019-03-29T01:43:03.278Z,89.51
2019-03-29T01:44:03.256Z,89.72
2019-03-29T01:45:03.276Z,89.92
2019-03-29T01:46:03.266Z,89.83
2019-03-29T01:47:04.000Z,89.72
2019-03-29T01:48:03.208Z,89.58
2019-03-29T01:49:03.197Z,90.03
2019-03-29T01:50:03.180Z,89.47
2019-03-29T01:51:03.210Z,89.47
2019-03-29T01:52:03.171Z,89.83
2019-03-29T01:53:03.158Z,89.83
2019-03-29T01:54:04.097Z,90.03
2019-03-29T01:55:03.128Z,90.84
2019-03-29T01:56:03.166Z,90.75
2019-03-29T01:57:03.175Z,90.75
2019-03-29T01:58:03.091Z,90.64
2019-03-29T01:59:03.085Z,90.75
2019-03-29T02:00:03.076Z,90.75
2019-03-29T02:01:03.263Z,89.92
2019-03-29T02:02:03.090Z,89.89
2019-03-29T02:03:03.179Z,90.13
2019-03-29T02:04:05.824Z,89.62
2019-03-29T02:05:03.014Z,89.62
2019-03-29T02:06:03.004Z,89.00
2019-03-29T02:07:03.034Z,89.11
2019-03-29T02:08:03.043Z,89.83
2019-03-29T02:09:02.975Z,89.62
2019-03-29T02:10:02.963Z,89.42
2019-03-29T02:11:02.945Z,89.92
2019-03-29T02:12:02.937Z,89.83
2019-03-29T02:13:02.927Z,90.13
2019-03-29T02:14:02.953Z,90.84
2019-03-29T02:15:02.914Z,90.84
2019-03-29T02:16:03.175Z,90.84
2019-03-29T02:17:02.878Z,90.75
2019-03-29T02:18:02.928Z,90.64
2019-03-29T02:19:02.855Z,90.44
2019-03-29T02:20:02.848Z,90.75
2019-03-29T02:21:02.836Z,90.64
2019-03-29T02:22:02.898Z,90.44
2019-03-29T02:23:03.951Z,90.75
2019-03-29T02:24:02.841Z,90.75
2019-03-29T02:25:02.797Z,90.64
2019-03-29T02:26:02.784Z,89.92
2019-03-29T02:27:02.775Z,89.92
2019-03-29T02:28:02.766Z,90.84
2019-03-29T02:29:02.799Z,90.75
2019-03-29T02:30:04.253Z,90.84
2019-03-29T02:31:02.734Z,90.84
2019-03-29T02:32:02.745Z,90.23
2019-03-29T02:33:02.702Z,89.92
2019-03-29T02:34:02.691Z,90.03
2019-03-29T02:35:02.723Z,90.23
2019-03-29T02:36:02.669Z,89.92
2019-03-29T02:37:02.803Z,89.72
2019-03-29T02:38:02.649Z,90.95
2019-03-29T02:39:02.690Z,90.84
2019-03-29T02:40:02.651Z,90.75
2019-03-29T02:41:02.642Z,90.95
2019-03-29T02:42:02.607Z,90.84
2019-03-29T02:43:02.597Z,90.23
2019-03-29T02:44:02.578Z,90.64
2019-03-29T02:45:03.579Z,90.64
2019-03-29T02:46:02.592Z,90.54
2019-03-29T02:47:02.544Z,90.34
2019-03-29T02:48:02.542Z,90.84
2019-03-29T02:49:02.533Z,90.64
2019-03-29T02:50:02.547Z,90.84
2019-03-29T02:51:04.495Z,90.75
2019-03-29T02:52:02.505Z,90.75
2019-03-29T02:53:02.479Z,90.84
2019-03-29T02:54:02.472Z,90.84
2019-03-29T02:55:02.494Z,90.75
2019-03-29T02:56:02.450Z,89.68
2019-03-29T02:57:02.436Z,89.89
2019-03-29T02:58:02.424Z,90.03
2019-03-29T02:59:02.409Z,89.83
2019-03-29T03:00:02.418Z,89.51
2019-03-29T03:01:02.423Z,89.51
2019-03-29T03:02:02.391Z,89.92
2019-03-29T03:03:02.372Z,90.84
2019-03-29T03:04:02.383Z,90.64
2019-03-29T03:05:02.386Z,90.75
2019-03-29T03:06:02.334Z,90.75
2019-03-29T03:07:02.327Z,90.44
2019-03-29T03:08:02.357Z,90.75
2019-03-29T03:09:13.092Z,90.44
2019-03-29T03:10:03.290Z,90.44
2019-03-29T03:11:02.288Z,90.44
2019-03-29T03:12:02.302Z,90.34
2019-03-29T03:13:02.258Z,90.75
2019-03-29T03:14:02.252Z,89.51
2019-03-29T03:15:02.270Z,89.92
2019-03-29T03:16:02.259Z,90.64
2019-03-29T03:17:02.271Z,90.64
2019-03-29T03:18:02.208Z,90.44
2019-03-29T03:19:02.212Z,90.54
2019-03-29T03:20:02.181Z,90.75
2019-03-29T03:21:02.203Z,90.75
2019-03-29T03:22:02.206Z,89.92
2019-03-29T03:23:02.160Z,90.84
2019-03-29T03:24:02.170Z,89.72
2019-03-29T03:25:02.130Z,90.84
2019-03-29T03:26:02.131Z,90.75
2019-03-29T03:27:02.104Z,90.54
2019-03-29T03:28:02.130Z,90.44
2019-03-29T03:29:02.088Z,90.69
2019-03-29T03:30:02.074Z,90.44
2019-03-29T03:31:02.088Z,90.54
2019-03-29T03:32:02.085Z,91.40
2019-03-29T03:33:02.073Z,90.79
2019-03-29T03:34:02.034Z,90.89
2019-03-29T03:35:02.033Z,90.95
2019-03-29T03:36:02.015Z,90.95
2019-03-29T03:37:01.989Z,90.95
2019-03-29T03:38:01.979Z,91.16
2019-03-29T03:39:02.006Z,91.46
2019-03-29T03:40:01.974Z,90.64
2019-03-29T03:41:01.947Z,90.95
2019-03-29T03:42:01.931Z,91.16
2019-03-29T03:43:01.921Z,90.75
2019-03-29T03:44:01.949Z,90.75
2019-03-29T03:45:01.915Z,90.54
2019-03-29T03:46:01.890Z,90.75
2019-03-29T03:47:01.881Z,90.64
2019-03-29T03:48:01.872Z,90.54
2019-03-29T03:49:01.910Z,90.75
2019-03-29T03:50:02.147Z,90.64
2019-03-29T03:51:01.831Z,90.75
2019-03-29T03:52:01.824Z,90.23
2019-03-29T03:53:01.812Z,90.23
2019-03-29T03:54:01.810Z,91.40
2019-03-29T03:55:01.856Z,91.26
2019-03-29T03:56:01.841Z,91.40
2019-03-29T03:57:01.773Z,91.46
2019-03-29T03:58:01.764Z,91.26
2019-03-29T03:59:01.746Z,90.13
2019-03-29T04:00:01.761Z,90.75
2019-03-29T04:01:01.763Z,90.54
2019-03-29T04:02:01.714Z,90.34
2019-03-29T04:03:01.699Z,90.54
2019-03-29T04:04:01.688Z,90.44
2019-03-29T04:05:01.676Z,90.64
2019-03-29T04:06:01.705Z,90.75
2019-03-29T04:07:01.689Z,90.44
2019-03-29T04:08:01.647Z,90.75
2019-03-29T04:09:01.754Z,90.75
2019-03-29T04:10:01.630Z,90.34
2019-03-29T04:11:01.656Z,90.75
2019-03-29T04:12:01.607Z,90.54
2019-03-29T04:13:01.599Z,90.44
2019-03-29T04:14:01.593Z,90.58
2019-03-29T04:15:01.580Z,90.17
2019-03-29T04:16:01.554Z,90.44
2019-03-29T04:17:01.586Z,90.37
2019-03-29T04:18:01.533Z,90.17
2019-03-29T04:19:01.536Z,90.79
2019-03-29T04:20:01.518Z,90.69
2019-03-29T04:21:01.498Z,90.69
2019-03-29T04:22:01.486Z,90.64
2019-03-29T04:23:01.513Z,90.64
2019-03-29T04:24:01.464Z,90.54
2019-03-29T04:25:01.470Z,90.64
2019-03-29T04:26:01.455Z,90.34
2019-03-29T04:27:01.498Z,90.44
2019-03-29T04:28:01.425Z,90.64
2019-03-29T04:29:04.849Z,90.44
2019-03-29T04:30:01.410Z,90.48
2019-03-29T04:31:01.397Z,90.64
2019-03-29T04:32:01.382Z,89.97
2019-03-29T04:33:01.422Z,90.03
2019-03-29T04:34:01.356Z,90.13
2019-03-29T04:35:01.355Z,90.34
2019-03-29T04:36:01.334Z,90.17
2019-03-29T04:37:01.331Z,89.92
2019-03-29T04:38:01.312Z,89.72
2019-03-29T04:39:01.343Z,89.83
2019-03-29T04:40:08.053Z,89.51
2019-03-29T04:41:02.289Z,89.04
2019-03-29T04:42:01.271Z,89.51
2019-03-29T04:43:01.258Z,89.56
2019-03-29T04:44:01.296Z,89.42
2019-03-29T04:45:01.235Z,88.90
2019-03-29T04:46:01.227Z,89.56
2019-03-29T04:47:01.215Z,89.51
2019-03-29T04:48:01.211Z,90.23
2019-03-29T04:49:01.232Z,89.72
2019-03-29T04:50:01.182Z,89.11
2019-03-29T04:51:01.170Z,88.80
2019-03-29T04:52:01.153Z,89.21
2019-03-29T04:53:01.156Z,89.47
2019-03-29T04:54:01.149Z,89.58
2019-03-29T04:55:01.194Z,89.31
2019-03-29T04:56:01.109Z,89.78
2019-03-29T04:57:01.105Z,89.47
2019-03-29T04:58:01.088Z,88.96
2019-03-29T04:59:01.127Z,88.86
2019-03-29T05:00:01.124Z,89.27
2019-03-29T05:01:01.060Z,88.96
2019-03-29T05:02:01.043Z,88.65
2019-03-29T05:03:01.050Z,88.96
2019-03-29T05:04:01.025Z,88.86
2019-03-29T05:05:01.053Z,88.76
2019-03-29T05:06:01.005Z,89.06
2019-03-29T05:07:00.995Z,89.06
2019-03-29T05:08:00.983Z,88.86
2019-03-29T05:09:00.966Z,88.86
2019-03-29T05:10:01.026Z,88.96
2019-03-29T05:11:00.946Z,88.86
2019-03-29T05:12:00.936Z,89.17
2019-03-29T05:13:00.936Z,89.06
2019-03-29T05:14:00.910Z,88.56
2019-03-29T05:15:00.910Z,89.17
2019-03-29T05:16:00.945Z,88.76
2019-03-29T05:17:00.878Z,89.37
2019-03-29T05:18:00.867Z,89.58
2019-03-29T05:19:00.858Z,88.65
2019-03-29T05:20:00.863Z,88.86
2019-03-29T05:21:00.878Z,88.96
2019-03-29T05:22:00.829Z,89.72
2019-03-29T05:23:00.811Z,89.51
2019-03-29T05:24:00.852Z,89.72
2019-03-29T05:25:00.798Z,89.62
2019-03-29T05:26:00.786Z,89.72
2019-03-29T05:27:00.775Z,89.72
2019-03-29T05:28:00.757Z,89.42
2019-03-29T05:29:00.753Z,89.51
2019-03-29T05:30:00.778Z,89.83
2019-03-29T05:31:00.735Z,89.62
2019-03-29T05:32:00.717Z,89.72
2019-03-29T05:33:00.704Z,89.47
2019-03-29T05:34:00.732Z,89.72
2019-03-29T05:35:00.689Z,89.42
2019-03-29T05:36:00.674Z,89.72
2019-03-29T05:37:00.704Z,89.51
2019-03-29T05:38:00.722Z,89.21
2019-03-29T05:39:00.636Z,89.72
2019-03-29T05:40:00.623Z,89.72
2019-03-29T05:41:00.619Z,88.80
2019-03-29T05:42:00.613Z,89.11
2019-03-29T05:43:00.607Z,89.47
2019-03-29T05:44:00.641Z,89.68
2019-03-29T05:45:00.580Z,89.47
2019-03-29T05:46:00.564Z,89.51
2019-03-29T05:47:00.551Z,89.62
2019-03-29T05:48:00.576Z,89.58
2019-03-29T05:49:00.550Z,88.86
2019-03-29T05:50:00.525Z,88.76
2019-03-29T05:51:00.507Z,88.49
2019-03-29T05:52:00.494Z,89.11
2019-03-29T05:53:00.571Z,88.90
2019-03-29T05:54:00.472Z,88.80
2019-03-29T05:55:00.510Z,89.51
2019-03-29T05:56:00.455Z,89.72
2019-03-29T05:57:00.439Z,89.83
2019-03-29T05:58:00.431Z,89.62
2019-03-29T05:59:00.459Z,89.00
2019-03-29T06:00:00.414Z,88.80
2019-03-29T06:01:00.400Z,88.90
2019-03-29T06:02:00.396Z,88.80
2019-03-29T06:03:00.373Z,87.77
2019-03-29T06:04:00.407Z,88.35
2019-03-29T06:05:00.399Z,88.45
2019-03-29T06:06:00.340Z,88.45
2019-03-29T06:07:00.333Z,87.94
2019-03-29T06:08:00.321Z,87.94
2019-03-29T06:09:00.315Z,87.94
2019-03-29T06:10:00.486Z,88.00
2019-03-29T06:11:00.329Z,87.38
2019-03-29T06:12:00.286Z,87.49
2019-03-29T06:13:00.280Z,87.38
2019-03-29T06:14:00.256Z,86.98
2019-03-29T06:15:00.386Z,87.49
2019-03-29T06:16:00.277Z,86.98
2019-03-29T06:17:00.233Z,87.38
2019-03-29T06:18:00.214Z,87.04
2019-03-29T06:19:00.203Z,86.73
2019-03-29T06:20:00.376Z,86.53
2019-03-29T06:21:00.236Z,86.73
2019-03-29T06:22:00.177Z,85.91
2019-03-29T06:23:00.168Z,85.91
2019-03-29T06:24:00.166Z,86.22
2019-03-29T06:25:00.151Z,86.02
2019-03-29T06:26:00.136Z,86.12
2019-03-29T06:27:00.156Z,85.75
2019-03-29T06:28:00.114Z,86.16
2019-03-29T06:29:00.098Z,86.16
2019-03-29T06:30:00.145Z,85.85
2019-03-29T06:31:00.118Z,86.46
2019-03-29T06:32:00.061Z,86.36
2019-03-29T06:33:00.094Z,86.57
2019-03-29T06:34:00.048Z,85.85
2019-03-29T06:35:00.047Z,85.85
2019-03-29T06:36:00.022Z,85.85
2019-03-29T06:37:00.065Z,85.50
2019-03-29T06:38:00.001Z,85.10
2019-03-29T06:38:59.982Z,84.93
2019-03-29T06:39:59.975Z,85.55
2019-03-29T06:41:03.097Z,85.44
2019-03-29T06:42:00.022Z,85.20
2019-03-29T06:42:59.986Z,85.44
2019-03-29T06:43:59.931Z,85.10
2019-03-29T06:44:59.919Z,85.91
2019-03-29T06:45:59.909Z,85.50
2019-03-29T06:46:59.938Z,85.50
2019-03-29T06:47:59.910Z,85.10
2019-03-29T06:48:59.872Z,85.20
2019-03-29T06:49:59.859Z,85.40
2019-03-29T06:50:59.854Z,85.50
2019-03-29T06:51:59.907Z,85.44
2019-03-29T06:52:59.871Z,85.40
2019-03-29T06:53:59.820Z,85.50
2019-03-29T06:54:59.801Z,85.44
2019-03-29T06:55:59.797Z,85.55
2019-03-29T06:56:59.822Z,85.30
2019-03-29T06:57:59.814Z,85.64
2019-03-29T06:58:59.763Z,85.44
2019-03-29T06:59:59.751Z,85.85
2019-03-29T07:00:59.738Z,85.40
2019-03-29T07:01:59.722Z,85.50
2019-03-29T07:02:59.753Z,85.40
2019-03-29T07:03:59.741Z,85.40
2019-03-29T07:04:59.695Z,85.40
2019-03-29T07:05:59.691Z,85.50
2019-03-29T07:06:59.672Z,85.40
2019-03-29T07:07:59.663Z,85.40
2019-03-29T07:08:59.713Z,85.71
2019-03-29T07:09:59.630Z,84.79
2019-03-29T07:10:59.620Z,84.69
2019-03-29T07:11:59.617Z,85.20
2019-03-29T07:12:59.599Z,85.50
2019-03-29T07:13:59.596Z,85.57
2019-03-29T07:14:59.629Z,85.16
2019-03-29T07:15:59.606Z,84.65
2019-03-29T07:16:59.554Z,83.62
2019-03-29T07:17:59.555Z,83.83
2019-03-29T07:18:59.560Z,83.73
2019-03-29T07:19:59.573Z,82.91
2019-03-29T07:20:59.521Z,83.22
2019-03-29T07:21:59.500Z,83.22
2019-03-29T07:22:59.492Z,83.83
2019-03-29T07:23:59.488Z,83.73
2019-03-29T07:24:59.513Z,83.32
2019-03-29T07:25:59.454Z,82.97
2019-03-29T07:26:59.444Z,82.97
2019-03-29T07:27:59.437Z,83.22
2019-03-29T07:28:59.426Z,83.22
2019-03-29T07:29:59.403Z,83.18
2019-03-29T07:30:59.455Z,83.48
2019-03-29T07:31:59.383Z,83.32
2019-03-29T07:32:59.379Z,83.32
2019-03-29T07:33:59.365Z,83.11
2019-03-29T07:34:59.367Z,82.20
2019-03-29T07:35:59.349Z,82.60
2019-03-29T07:36:59.367Z,82.46
2019-03-29T07:37:59.318Z,83.28
2019-03-29T07:38:59.310Z,83.42
2019-03-29T07:39:59.296Z,83.32
2019-03-29T07:40:59.328Z,83.22
2019-03-29T07:41:59.314Z,83.28
2019-03-29T07:42:59.274Z,83.48
2019-03-29T07:43:59.261Z,82.36
2019-03-29T07:44:59.236Z,82.97
2019-03-29T07:45:59.305Z,83.18
2019-03-29T07:46:59.213Z,83.59
2019-03-29T07:47:59.212Z,83.48
2019-03-29T07:48:59.201Z,83.28
2019-03-29T07:49:59.181Z,83.28
2019-03-29T07:50:59.173Z,83.28
2019-03-29T07:51:59.242Z,83.28
2019-03-29T07:52:59.149Z,83.38
2019-03-29T07:53:59.145Z,83.18
2019-03-29T07:54:59.128Z,82.77
2019-03-29T07:55:59.115Z,82.87
2019-03-29T07:56:59.152Z,83.48
2019-03-29T07:57:59.090Z,83.28
2019-03-29T07:58:59.125Z,83.07
2019-03-29T07:59:59.072Z,83.44
2019-03-29T08:00:59.055Z,82.32
2019-03-29T08:01:59.089Z,82.32
2019-03-29T08:02:59.033Z,81.60
2019-03-29T08:03:59.031Z,81.51
2019-03-29T08:04:59.019Z,81.40
2019-03-29T08:05:59.065Z,81.71
2019-03-29T08:06:58.997Z,82.12
2019-03-29T08:07:59.907Z,81.81
2019-03-29T08:08:58.969Z,81.60
2019-03-29T08:09:58.960Z,81.60
2019-03-29T08:10:59.229Z,81.60
2019-03-29T08:11:58.955Z,81.20
2019-03-29T08:12:58.969Z,81.51
2019-03-29T08:13:58.981Z,81.60
2019-03-29T08:14:58.910Z,81.57
2019-03-29T08:15:58.892Z,80.65
2019-03-29T08:16:58.880Z,80.55
2019-03-29T08:18:01.570Z,80.44
2019-03-29T08:18:58.866Z,80.44
2019-03-29T08:20:35.622Z,80.51
2019-03-29T08:20:59.840Z,79.80
2019-03-29T08:21:58.853Z,79.90
2019-03-29T08:22:58.818Z,79.22
2019-03-29T08:23:58.802Z,79.80
2019-03-29T08:24:59.419Z,80.41
2019-03-29T08:25:58.807Z,79.49
2019-03-29T08:26:58.774Z,79.49
2019-03-29T08:27:58.757Z,78.88
2019-03-29T08:28:58.822Z,78.27
2019-03-29T08:29:58.745Z,78.37
2019-03-29T08:30:58.726Z,77.96
2019-03-29T08:31:58.714Z,77.96
2019-03-29T08:32:58.707Z,77.86
2019-03-29T08:33:58.692Z,78.16
2019-03-29T08:34:58.723Z,78.47
2019-03-29T08:35:58.675Z,78.67
2019-03-29T08:36:58.663Z,78.27
2019-03-29T08:37:58.647Z,78.41
2019-03-29T08:38:58.636Z,78.47
2019-03-29T08:39:58.631Z,78.98
2019-03-29T08:40:58.660Z,78.37
2019-03-29T08:42:00.430Z,78.16
2019-03-29T08:42:58.634Z,78.06
2019-03-29T08:43:58.584Z,78.16
2019-03-29T08:44:58.568Z,79.08
2019-03-29T08:45:58.562Z,79.08
2019-03-29T08:46:58.595Z,79.08
2019-03-29T08:47:58.543Z,79.18
2019-03-29T08:48:58.524Z,79.49
2019-03-29T08:49:58.521Z,79.49
2019-03-29T08:50:58.508Z,79.14
2019-03-29T08:51:58.533Z,78.43
2019-03-29T08:52:58.486Z,78.02
2019-03-29T08:53:58.471Z,78.12
2019-03-29T08:54:58.463Z,77.92
2019-03-29T08:55:58.452Z,78.53
2019-03-29T08:56:58.444Z,78.43
2019-03-29T08:57:58.500Z,78.12
2019-03-29T08:58:58.414Z,77.82
2019-03-29T08:59:58.408Z,78.53
2019-03-29T09:00:58.398Z,78.94
2019-03-29T09:01:58.395Z,79.45
2019-03-29T09:02:58.381Z,78.98
2019-03-29T09:04:05.299Z,78.47
2019-03-29T09:04:59.344Z,78.88
2019-03-29T09:05:58.337Z,78.47
2019-03-29T09:06:58.327Z,78.67
2019-03-29T09:07:58.311Z,78.64
2019-03-29T09:08:58.351Z,78.88
2019-03-29T09:09:58.298Z,79.08
2019-03-29T09:10:58.287Z,78.64
2019-03-29T09:11:58.276Z,77.41
2019-03-29T09:12:58.302Z,77.92
2019-03-29T09:13:58.306Z,76.84
2019-03-29T09:14:58.235Z,77.45
2019-03-29T09:15:58.234Z,77.75
2019-03-29T09:16:58.223Z,78.37
2019-03-29T09:17:59.939Z,79.08
2019-03-29T09:18:58.197Z,79.39
2019-03-29T09:19:58.248Z,79.59
2019-03-29T09:20:58.173Z,79.59
2019-03-29T09:21:58.154Z,80.61
2019-03-29T09:22:58.146Z,79.69
2019-03-29T09:23:58.140Z,79.90
2019-03-29T09:24:58.127Z,79.18
2019-03-29T09:25:58.168Z,78.57
2019-03-29T09:26:58.107Z,78.06
2019-03-29T09:27:58.097Z,78.06
2019-03-29T09:28:58.087Z,78.47
2019-03-29T09:29:58.105Z,78.71
2019-03-29T09:30:58.074Z,78.27
2019-03-29T09:31:58.084Z,78.47
2019-03-29T09:32:58.037Z,78.77
2019-03-29T09:33:58.768Z,78.77
2019-03-29T09:34:58.022Z,78.84
2019-03-29T09:35:58.001Z,78.88
2019-03-29T09:36:59.920Z,79.59
2019-03-29T09:37:57.991Z,78.98
2019-03-29T09:38:57.996Z,79.08
2019-03-29T09:39:57.955Z,79.28
2019-03-29T09:40:59.228Z,79.28
2019-03-29T09:41:57.980Z,79.28
2019-03-29T09:43:07.333Z,79.28
2019-03-29T09:43:58.912Z,79.28
2019-03-29T09:44:57.914Z,79.39
2019-03-29T09:45:57.931Z,79.49
2019-03-29T09:46:57.884Z,79.25
2019-03-29T09:47:57.870Z,78.67
2019-03-29T09:48:57.903Z,78.77
2019-03-29T09:49:57.861Z,79.39
2019-03-29T09:50:57.868Z,79.04
2019-03-29T09:51:57.825Z,79.18
2019-03-29T09:53:00.914Z,78.88
2019-03-29T09:53:58.088Z,79.39
2019-03-29T09:54:57.792Z,78.77
2019-03-29T09:55:57.775Z,78.67
2019-03-29T09:56:57.765Z,78.88
2019-03-29T09:57:57.758Z,78.88
2019-03-29T09:58:57.784Z,78.67
2019-03-29T09:59:57.744Z,77.96
2019-03-29T10:00:57.730Z,78.27
2019-03-29T10:01:57.718Z,77.65
2019-03-29T10:02:57.707Z,77.86
2019-03-29T10:03:57.698Z,77.34
2019-03-29T10:04:57.717Z,77.14
2019-03-29T10:05:57.671Z,77.34
2019-03-29T10:06:57.661Z,77.25
2019-03-29T10:07:57.652Z,77.25
2019-03-29T10:08:57.709Z,76.84
2019-03-29T10:09:57.658Z,76.43
2019-03-29T10:10:57.624Z,76.02
2019-03-29T10:11:57.608Z,75.61
2019-03-29T10:12:57.599Z,75.92
2019-03-29T10:13:57.577Z,75.51
2019-03-29T10:14:57.604Z,75.51
2019-03-29T10:15:57.585Z,75.41
2019-03-29T10:16:57.561Z,76.56
2019-03-29T10:17:57.534Z,77.18
2019-03-29T10:18:57.524Z,77.25
2019-03-29T10:19:57.560Z,76.63
2019-03-29T10:20:57.504Z,76.73
2019-03-29T10:21:57.487Z,76.22
2019-03-29T10:22:57.537Z,75.92
2019-03-29T10:23:57.476Z,75.82
2019-03-29T10:24:57.464Z,75.71
2019-03-29T10:25:58.731Z,75.20
2019-03-29T10:26:57.455Z,75.71
2019-03-29T10:27:57.472Z,74.49
2019-03-29T10:28:57.411Z,74.49
2019-03-29T10:29:57.398Z,75.20
2019-03-29T10:30:57.390Z,75.00
2019-03-29T10:31:57.425Z,75.10
2019-03-29T10:32:57.381Z,75.31
2019-03-29T10:33:57.356Z,75.31
2019-03-29T10:34:57.343Z,74.96
2019-03-29T10:35:57.342Z,75.27
2019-03-29T10:36:57.363Z,74.35
2019-03-29T10:37:57.352Z,73.54
2019-03-29T10:38:57.303Z,73.43
2019-03-29T10:39:57.285Z,73.23
2019-03-29T10:40:57.279Z,73.13
2019-03-29T10:41:57.279Z,73.23
2019-03-29T10:42:58.442Z,72.72
2019-03-29T10:43:57.343Z,72.62
2019-03-29T10:44:57.235Z,73.13
2019-03-29T10:45:57.219Z,72.72
2019-03-29T10:46:57.224Z,72.21
2019-03-29T10:47:57.197Z,70.98
2019-03-29T10:48:57.199Z,71.50
2019-03-29T10:49:57.212Z,71.19
2019-03-29T10:50:57.178Z,71.91
2019-03-29T10:51:57.156Z,71.87
2019-03-29T10:52:57.146Z,71.29
2019-03-29T10:53:57.181Z,71.06
2019-03-29T10:54:57.209Z,70.54
2019-03-29T10:55:57.155Z,69.22
2019-03-29T10:56:57.109Z,68.91
2019-03-29T10:57:57.092Z,69.42
2019-03-29T10:58:57.090Z,69.53
2019-03-29T10:59:57.114Z,68.91
2019-03-29T11:00:57.057Z,68.71
2019-03-29T11:01:57.051Z,68.48
2019-03-29T11:02:57.033Z,68.68
2019-03-29T11:03:57.016Z,67.76
2019-03-29T11:04:57.151Z,66.57
2019-03-29T11:05:57.042Z,65.34
2019-03-29T11:06:56.986Z,64.70
2019-03-29T11:07:56.974Z,64.60
2019-03-29T11:08:56.966Z,64.90
2019-03-29T11:09:56.987Z,64.09
2019-03-29T11:10:56.982Z,64.20
2019-03-29T11:11:56.936Z,64.09
2019-03-29T11:13:11.405Z,63.99
2019-03-29T11:13:57.912Z,64.09
2019-03-29T11:14:56.904Z,63.79
2019-03-29T11:15:56.938Z,61.65
2019-03-29T11:16:56.943Z,62.26
2019-03-29T11:17:56.916Z,61.85
2019-03-29T11:18:56.854Z,61.44
2019-03-29T11:19:56.856Z,61.34
2019-03-29T11:20:56.835Z,60.73
2019-03-29T11:21:56.867Z,61.14
2019-03-29T11:22:56.866Z,61.57
2019-03-29T11:23:56.810Z,62.49
2019-03-29T11:24:56.794Z,62.70
2019-03-29T11:25:56.784Z,63.00
2019-03-29T11:26:56.765Z,62.90
2019-03-29T11:27:56.772Z,62.80
2019-03-29T11:28:56.794Z,62.70
2019-03-29T11:29:56.731Z,63.00
2019-03-29T11:30:56.727Z,62.80
2019-03-29T11:31:56.707Z,61.54
2019-03-29T11:32:56.759Z,62.26
2019-03-29T11:33:56.738Z,62.36
2019-03-29T11:34:56.680Z,62.39
2019-03-29T11:35:56.691Z,62.87
2019-03-29T11:36:56.664Z,62.23
2019-03-29T11:37:56.654Z,61.61
2019-03-29T11:38:56.697Z,61.93
2019-03-29T11:39:56.625Z,60.70
2019-03-29T11:40:56.609Z,60.39
2019-03-29T11:41:56.611Z,60.60
2019-03-29T11:42:56.594Z,60.19
2019-03-29T11:43:56.577Z,60.50
2019-03-29T11:44:56.608Z,60.80
2019-03-29T11:45:56.603Z,60.60
2019-03-29T11:46:56.548Z,61.11
2019-03-29T11:48:07.354Z,60.91
2019-03-29T11:48:57.568Z,61.11
2019-03-29T11:49:56.517Z,61.11
2019-03-29T11:50:56.507Z,61.31
2019-03-29T11:51:56.502Z,61.00
2019-03-29T11:52:56.480Z,61.59
2019-03-29T11:53:56.471Z,61.59
2019-03-29T11:54:56.522Z,61.41
2019-03-29T11:55:56.450Z,61.59
2019-03-29T11:56:56.442Z,61.79
2019-03-29T11:57:56.426Z,61.93
2019-03-29T11:58:56.429Z,62.40
2019-03-29T11:59:56.408Z,62.54
2019-03-29T12:00:56.480Z,62.94
2019-03-29T12:01:56.383Z,62.74
2019-03-29T12:02:56.371Z,63.24
2019-03-29T12:03:56.375Z,63.15
2019-03-29T12:04:56.345Z,62.63
2019-03-29T12:05:56.388Z,63.35
2019-03-29T12:06:56.329Z,63.96
2019-03-29T12:07:56.325Z,63.35
2019-03-29T12:08:57.225Z,63.76
2019-03-29T12:09:56.294Z,64.26
2019-03-29T12:10:56.341Z,63.86
2019-03-29T12:11:56.268Z,63.86
2019-03-29T12:12:56.264Z,63.15
2019-03-29T12:13:56.251Z,63.15
2019-03-29T12:14:56.232Z,63.35
2019-03-29T12:15:56.222Z,62.84
2019-03-29T12:16:56.283Z,62.94
2019-03-29T12:17:56.214Z,62.94
2019-03-29T12:18:56.206Z,62.94
2019-03-29T12:19:56.192Z,62.92
2019-03-29T12:20:56.173Z,63.24
2019-03-29T12:21:56.157Z,63.73
2019-03-29T12:22:56.202Z,63.22
2019-03-29T12:23:56.135Z,62.61
2019-03-29T12:24:56.144Z,61.79
2019-03-29T12:25:56.120Z,61.69
2019-03-29T12:26:56.109Z,62.20
2019-03-29T12:27:56.139Z,62.61
2019-03-29T12:28:56.161Z,61.90
2019-03-29T12:29:56.108Z,61.79
2019-03-29T12:30:56.069Z,61.87
2019-03-29T12:31:56.047Z,61.99
2019-03-29T12:32:56.079Z,62.07
2019-03-29T12:33:56.032Z,61.59
2019-03-29T12:34:56.017Z,61.79
2019-03-29T12:35:56.004Z,62.61
2019-03-29T12:36:55.999Z,62.71
2019-03-29T12:37:56.024Z,62.92
2019-03-29T12:38:55.973Z,62.43
2019-03-29T12:39:55.961Z,62.71
2019-03-29T12:40:55.961Z,61.99
2019-03-29T12:41:55.945Z,62.61
2019-03-29T12:42:55.927Z,62.81
2019-03-29T12:43:56.277Z,62.92
2019-03-29T12:44:55.904Z,62.81
2019-03-29T12:45:55.918Z,62.92
2019-03-29T12:46:55.890Z,61.49
2019-03-29T12:47:55.882Z,62.51
2019-03-29T12:48:55.862Z,62.40
2019-03-29T12:49:55.894Z,62.10
2019-03-29T12:50:55.846Z,62.27
2019-03-29T12:51:55.839Z,63.19